Airborne Airpark
KILN : now visible

Airfield :











YOU CAN JOIN US ON...

 
LOGIN :

Register | Disclaimer

   EN    FR    IT 

 









Legend :    VFR   Marginal VFR   IFR   Intensive IFR   Very Intensive IFR
Visi :
Ceiling :
>= 8 km
>= 3000ft
5 to 8 km
1000 to 3000 ft
1500m to 5 km
500 to 1000 ft
800 to 1500m
200 to 500 ft
< 800m
< 200 ft
Symbols :   Thunderstorms  Fog  Heavy snow  Heavy precipitations  Wind > 20 kt






- Airport Elevation : 1077 ft


KILN - Airborne Airpark

CURRENT METAR :
  • 011254Z AUTO 26005KT 8SM CLR 19/16 A2996 RMK AO2 SLP139 T01890156 $

EXPIRED METARs :
  • 011154Z AUTO 29004KT 8SM CLR 17/14 A2995 RMK AO2 SLP135 T01720144 10178 20150 53005 $
  • 011054Z AUTO 26004KT 8SM CLR 15/13 A2995 RMK AO2 SLP137 T01500133 $

TAF KILN
Valid from the 01 at 12:00 until the 02 at 12:00 UTC


011135Z 0112/0212 29007KT P6SM FEW250
FM011700 29011KT P6SM FEW040
FM011900 29011KT P6SM VCTS SCT035CB
FM012100 31011KT P6SM SCT050
FM020200 34005KT P6SM FEW250
FM020700 01004KT P6SM FEW250
KZID FIR / North America



MET'MAP, your aeronautical weather chart ! - Copyright ORBIFLY December 2007 - Disclaimer

ORBIFLY MET'MAP TEAM :

Programming & Development : Alexandra Zaïnal
Concept & original design : Baudouin d'Aumeries
Assistance for programming : Marc-Olivier Méhu
Technical & hardware support : Manuel Goepfert

Contact : metmap@orbifly.com




SOURCES & CREDITS :

   NOAA       Earth
Advisory